sensor_id;sensor_type;location;lat;lon;timestamp;P1;durP1;ratioP1;P2;durP2;ratioP2
12163;SDS011;6145;50.192;10.064;2023-08-30T07:36:18;7.77;;;7.13;;
12163;SDS011;6145;50.192;10.064;2023-08-30T07:38:45;6.80;;;6.10;;
12163;SDS011;6145;50.192;10.064;2023-08-30T07:41:11;7.00;;;6.37;;
12163;SDS011;6145;50.192;10.064;2023-08-30T07:43:39;6.83;;;6.23;;
12163;SDS011;6145;50.192;10.064;2023-08-30T07:46:06;7.13;;;6.53;;
12163;SDS011;6145;50.192;10.064;2023-08-30T07:48:33;7.73;;;7.03;;
12163;SDS011;6145;50.192;10.064;2023-08-30T07:51:00;7.23;;;6.60;;
12163;SDS011;6145;50.192;10.064;2023-08-30T07:53:29;8.03;;;7.07;;
12163;SDS011;6145;50.192;10.064;2023-08-30T07:55:56;6.83;;;6.23;;
12163;SDS011;6145;50.192;10.064;2023-08-30T07:58:23;6.43;;;5.93;;
12163;SDS011;6145;50.192;10.064;2023-08-30T08:00:50;7.33;;;6.63;;
12163;SDS011;6145;50.192;10.064;2023-08-30T08:03:18;5.97;;;5.37;;
12163;SDS011;6145;50.192;10.064;2023-08-30T08:05:46;7.07;;;6.47;;
12163;SDS011;6145;50.192;10.064;2023-08-30T08:08:13;6.73;;;6.03;;
12163;SDS011;6145;50.192;10.064;2023-08-30T08:10:42;6.63;;;5.93;;
12163;SDS011;6145;50.192;10.064;2023-08-30T08:13:09;7.17;;;5.60;;
12163;SDS011;6145;50.192;10.064;2023-08-30T08:15:38;8.13;;;7.30;;
12163;SDS011;6145;50.192;10.064;2023-08-30T08:18:05;6.80;;;6.20;;
12163;SDS011;6145;50.192;10.064;2023-08-30T08:20:32;7.27;;;6.67;;
12163;SDS011;6145;50.192;10.064;2023-08-30T08:22:59;8.10;;;7.37;;
12163;SDS011;6145;50.192;10.064;2023-08-30T08:25:26;7.77;;;6.47;;
12163;SDS011;6145;50.192;10.064;2023-08-30T08:27:55;7.13;;;6.53;;
12163;SDS011;6145;50.192;10.064;2023-08-30T08:30:22;7.23;;;6.53;;
12163;SDS011;6145;50.192;10.064;2023-08-30T08:32:49;7.80;;;7.10;;
12163;SDS011;6145;50.192;10.064;2023-08-30T08:35:16;9.77;;;6.90;;
12163;SDS011;6145;50.192;10.064;2023-08-30T08:37:45;8.23;;;7.37;;
12163;SDS011;6145;50.192;10.064;2023-08-30T08:40:12;7.37;;;6.77;;
12163;SDS011;6145;50.192;10.064;2023-08-30T08:42:39;8.30;;;7.50;;
12163;SDS011;6145;50.192;10.064;2023-08-30T08:45:10;7.83;;;7.13;;
12163;SDS011;6145;50.192;10.064;2023-08-30T08:47:37;8.60;;;6.93;;
12163;SDS011;6145;50.192;10.064;2023-08-30T08:50:05;7.43;;;6.73;;
12163;SDS011;6145;50.192;10.064;2023-08-30T08:52:32;6.53;;;6.03;;
12163;SDS011;6145;50.192;10.064;2023-08-30T08:54:59;8.67;;;7.27;;
12163;SDS011;6145;50.192;10.064;2023-08-30T08:57:28;8.83;;;7.93;;
12163;SDS011;6145;50.192;10.064;2023-08-30T08:59:56;7.57;;;6.97;;
12163;SDS011;6145;50.192;10.064;2023-08-30T09:02:24;7.90;;;7.10;;
12163;SDS011;6145;50.192;10.064;2023-08-30T09:04:52;8.00;;;7.30;;
12163;SDS011;6145;50.192;10.064;2023-08-30T09:07:19;7.83;;;7.03;;
12163;SDS011;6145;50.192;10.064;2023-08-30T09:09:46;7.93;;;7.23;;
12163;SDS011;6145;50.192;10.064;2023-08-30T09:12:14;6.43;;;5.80;;
12163;SDS011;6145;50.192;10.064;2023-08-30T09:14:41;8.03;;;7.40;;
12163;SDS011;6145;50.192;10.064;2023-08-30T09:17:18;7.33;;;6.63;;
12163;SDS011;6145;50.192;10.064;2023-08-30T09:19:46;7.70;;;7.00;;
12163;SDS011;6145;50.192;10.064;2023-08-30T09:22:13;7.63;;;6.80;;
12163;SDS011;6145;50.192;10.064;2023-08-30T09:24:40;6.43;;;5.83;;
12163;SDS011;6145;50.192;10.064;2023-08-30T09:27:07;7.37;;;6.77;;
12163;SDS011;6145;50.192;10.064;2023-08-30T09:29:34;7.53;;;6.30;;
12163;SDS011;6145;50.192;10.064;2023-08-30T09:32:01;7.10;;;6.20;;
12163;SDS011;6145;50.192;10.064;2023-08-30T09:34:28;7.17;;;6.47;;
12163;SDS011;6145;50.192;10.064;2023-08-30T09:36:57;6.27;;;5.40;;
12163;SDS011;6145;50.192;10.064;2023-08-30T09:39:26;5.97;;;5.40;;
12163;SDS011;6145;50.192;10.064;2023-08-30T09:41:53;6.47;;;5.87;;
12163;SDS011;6145;50.192;10.064;2023-08-30T09:44:21;6.23;;;5.60;;
12163;SDS011;6145;50.192;10.064;2023-08-30T09:46:49;5.37;;;4.87;;
12163;SDS011;6145;50.192;10.064;2023-08-30T09:49:18;4.60;;;4.27;;
12163;SDS011;6145;50.192;10.064;2023-08-30T09:51:46;5.87;;;5.27;;
12163;SDS011;6145;50.192;10.064;2023-08-30T09:54:15;6.97;;;6.13;;
12163;SDS011;6145;50.192;10.064;2023-08-30T09:56:44;6.23;;;5.73;;
12163;SDS011;6145;50.192;10.064;2023-08-30T09:59:12;6.60;;;5.57;;
12163;SDS011;6145;50.192;10.064;2023-08-30T10:01:40;5.63;;;5.23;;
12163;SDS011;6145;50.192;10.064;2023-08-30T10:04:08;6.87;;;6.23;;
12163;SDS011;6145;50.192;10.064;2023-08-30T10:06:36;6.53;;;5.93;;
12163;SDS011;6145;50.192;10.064;2023-08-30T10:09:04;5.43;;;4.50;;
12163;SDS011;6145;50.192;10.064;2023-08-30T10:11:34;4.93;;;4.53;;
12163;SDS011;6145;50.192;10.064;2023-08-30T10:14:02;5.10;;;4.60;;
12163;SDS011;6145;50.192;10.064;2023-08-30T10:16:30;6.07;;;5.40;;
12163;SDS011;6145;50.192;10.064;2023-08-30T10:19:10;5.45;;;4.72;;
12163;SDS011;6145;50.192;10.064;2023-08-30T10:21:40;6.70;;;6.07;;
12163;SDS011;6145;50.192;10.064;2023-08-30T10:24:08;6.78;;;6.25;;
12163;SDS011;6145;50.192;10.064;2023-08-30T10:26:40;7.37;;;6.33;;
12163;SDS011;6145;50.192;10.064;2023-08-30T10:29:09;7.13;;;6.53;;
12163;SDS011;6145;50.192;10.064;2023-08-30T10:31:37;6.40;;;5.80;;
12163;SDS011;6145;50.192;10.064;2023-08-30T10:34:11;6.70;;;6.20;;
12163;SDS011;6145;50.192;10.064;2023-08-30T10:36:39;6.32;;;5.80;;
12163;SDS011;6145;50.192;10.064;2023-08-30T10:39:10;8.40;;;6.70;;
12163;SDS011;6145;50.192;10.064;2023-08-30T10:41:53;5.93;;;5.45;;
12163;SDS011;6145;50.192;10.064;2023-08-30T10:44:21;4.53;;;4.22;;
12163;SDS011;6145;50.192;10.064;2023-08-30T10:46:51;7.65;;;5.13;;
12163;SDS011;6145;50.192;10.064;2023-08-30T10:49:19;4.97;;;4.60;;
12163;SDS011;6145;50.192;10.064;2023-08-30T10:51:53;5.13;;;4.63;;
12163;SDS011;6145;50.192;10.064;2023-08-30T10:54:21;6.65;;;5.03;;
12163;SDS011;6145;50.192;10.064;2023-08-30T10:56:54;6.80;;;6.20;;
12163;SDS011;6145;50.192;10.064;2023-08-30T10:59:24;6.15;;;4.90;;
12163;SDS011;6145;50.192;10.064;2023-08-30T11:01:51;5.50;;;5.03;;
12163;SDS011;6145;50.192;10.064;2023-08-30T11:04:20;6.77;;;5.77;;
12163;SDS011;6145;50.192;10.064;2023-08-30T11:06:49;7.37;;;6.13;;
12163;SDS011;6145;50.192;10.064;2023-08-30T11:09:16;4.70;;;4.30;;
12163;SDS011;6145;50.192;10.064;2023-08-30T11:11:44;6.05;;;5.55;;
12163;SDS011;6145;50.192;10.064;2023-08-30T11:14:20;6.47;;;5.93;;
12163;SDS011;6145;50.192;10.064;2023-08-30T11:16:47;6.40;;;4.80;;
12163;SDS011;6145;50.192;10.064;2023-08-30T11:19:14;5.60;;;5.10;;
12163;SDS011;6145;50.192;10.064;2023-08-30T11:21:43;6.47;;;5.85;;
12163;SDS011;6145;50.192;10.064;2023-08-30T11:24:10;5.43;;;4.93;;
12163;SDS011;6145;50.192;10.064;2023-08-30T11:26:38;5.75;;;5.25;;
12163;SDS011;6145;50.192;10.064;2023-08-30T11:29:05;5.85;;;5.35;;
12163;SDS011;6145;50.192;10.064;2023-08-30T11:31:34;4.88;;;4.47;;
12163;SDS011;6145;50.192;10.064;2023-08-30T11:34:01;4.80;;;4.40;;
12163;SDS011;6145;50.192;10.064;2023-08-30T11:36:29;5.35;;;4.95;;
12163;SDS011;6145;50.192;10.064;2023-08-30T11:38:57;5.97;;;5.40;;
12163;SDS011;6145;50.192;10.064;2023-08-30T11:41:24;5.90;;;5.40;;
12163;SDS011;6145;50.192;10.064;2023-08-30T11:43:51;7.78;;;4.88;;
12163;SDS011;6145;50.192;10.064;2023-08-30T11:46:19;5.93;;;4.47;;
12163;SDS011;6145;50.192;10.064;2023-08-30T11:48:49;5.55;;;5.05;;
12163;SDS011;6145;50.192;10.064;2023-08-30T11:51:18;5.88;;;5.30;;
12163;SDS011;6145;50.192;10.064;2023-08-30T11:53:46;5.25;;;4.70;;
12163;SDS011;6145;50.192;10.064;2023-08-30T11:56:14;12.85;;;6.50;;
12163;SDS011;6145;50.192;10.064;2023-08-30T11:58:42;5.47;;;4.53;;
12163;SDS011;6145;50.192;10.064;2023-08-30T12:04:23;6.43;;;5.80;;
12163;SDS011;6145;50.192;10.064;2023-08-30T12:06:53;6.43;;;5.10;;
12163;SDS011;6145;50.192;10.064;2023-08-30T12:10:17;5.70;;;5.07;;
12163;SDS011;6145;50.192;10.064;2023-08-30T12:16:40;6.93;;;4.60;;
12163;SDS011;6145;50.192;10.064;2023-08-30T14:29:24;4.32;;;3.75;;
12163;SDS011;6145;50.192;10.064;2023-08-30T14:31:52;3.47;;;3.20;;
12163;SDS011;6145;50.192;10.064;2023-08-30T14:34:20;4.03;;;3.63;;
12163;SDS011;6145;50.192;10.064;2023-08-30T14:39:41;3.60;;;3.00;;
12163;SDS011;6145;50.192;10.064;2023-08-30T14:42:08;3.00;;;2.80;;
12163;SDS011;6145;50.192;10.064;2023-08-30T14:44:55;3.72;;;3.30;;
12163;SDS011;6145;50.192;10.064;2023-08-30T15:04:57;3.55;;;3.25;;
12163;SDS011;6145;50.192;10.064;2023-08-30T15:07:25;5.97;;;3.20;;
12163;SDS011;6145;50.192;10.064;2023-08-30T15:10:29;3.15;;;2.85;;
12163;SDS011;6145;50.192;10.064;2023-08-30T15:12:57;2.70;;;2.50;;
12163;SDS011;6145;50.192;10.064;2023-08-30T15:15:25;3.42;;;3.13;;
12163;SDS011;6145;50.192;10.064;2023-08-30T15:17:55;3.25;;;2.92;;
12163;SDS011;6145;50.192;10.064;2023-08-30T15:45:30;2.88;;;2.67;;
12163;SDS011;6145;50.192;10.064;2023-08-30T15:59:08;2.58;;;2.38;;
12163;SDS011;6145;50.192;10.064;2023-08-30T16:15:09;3.03;;;2.20;;
12163;SDS011;6145;50.192;10.064;2023-08-30T16:17:36;3.13;;;2.78;;
12163;SDS011;6145;50.192;10.064;2023-08-30T16:20:03;2.80;;;2.55;;
12163;SDS011;6145;50.192;10.064;2023-08-30T16:22:31;2.75;;;2.45;;
12163;SDS011;6145;50.192;10.064;2023-08-30T16:24:58;2.75;;;2.55;;
12163;SDS011;6145;50.192;10.064;2023-08-30T16:27:25;4.57;;;2.75;;
12163;SDS011;6145;50.192;10.064;2023-08-30T16:29:53;3.55;;;2.60;;
12163;SDS011;6145;50.192;10.064;2023-08-30T16:32:20;3.08;;;2.80;;
12163;SDS011;6145;50.192;10.064;2023-08-30T16:34:47;2.78;;;2.58;;
12163;SDS011;6145;50.192;10.064;2023-08-30T16:37:14;3.85;;;2.70;;
12163;SDS011;6145;50.192;10.064;2023-08-30T16:39:41;2.88;;;2.47;;
12163;SDS011;6145;50.192;10.064;2023-08-30T16:42:08;3.55;;;2.67;;
12163;SDS011;6145;50.192;10.064;2023-08-30T16:44:34;2.95;;;2.55;;
12163;SDS011;6145;50.192;10.064;2023-08-30T16:47:03;2.85;;;2.65;;
12163;SDS011;6145;50.192;10.064;2023-08-30T16:49:30;2.78;;;2.58;;
12163;SDS011;6145;50.192;10.064;2023-08-30T16:51:57;3.30;;;2.70;;
12163;SDS011;6145;50.192;10.064;2023-08-30T16:54:23;2.50;;;2.30;;
12163;SDS011;6145;50.192;10.064;2023-08-30T16:56:51;2.75;;;2.42;;
12163;SDS011;6145;50.192;10.064;2023-08-30T16:59:18;3.83;;;3.05;;
12163;SDS011;6145;50.192;10.064;2023-08-30T17:01:45;2.88;;;2.67;;
12163;SDS011;6145;50.192;10.064;2023-08-30T17:04:13;3.50;;;3.20;;
12163;SDS011;6145;50.192;10.064;2023-08-30T17:06:40;3.05;;;2.85;;
12163;SDS011;6145;50.192;10.064;2023-08-30T17:09:07;2.55;;;2.35;;
12163;SDS011;6145;50.192;10.064;2023-08-30T17:11:34;3.20;;;2.80;;
12163;SDS011;6145;50.192;10.064;2023-08-30T17:14:03;4.05;;;2.70;;
12163;SDS011;6145;50.192;10.064;2023-08-30T17:16:30;3.27;;;2.40;;
12163;SDS011;6145;50.192;10.064;2023-08-30T17:18:57;2.57;;;2.37;;
12163;SDS011;6145;50.192;10.064;2023-08-30T17:21:25;3.53;;;2.70;;
12163;SDS011;6145;50.192;10.064;2023-08-30T17:23:52;4.80;;;2.73;;
12163;SDS011;6145;50.192;10.064;2023-08-30T17:26:19;2.87;;;2.67;;
12163;SDS011;6145;50.192;10.064;2023-08-30T17:28:46;3.03;;;2.67;;
12163;SDS011;6145;50.192;10.064;2023-08-30T17:31:13;2.80;;;2.60;;
12163;SDS011;6145;50.192;10.064;2023-08-30T17:33:40;3.37;;;2.90;;
12163;SDS011;6145;50.192;10.064;2023-08-30T17:36:08;3.33;;;3.00;;
12163;SDS011;6145;50.192;10.064;2023-08-30T17:38:36;2.93;;;2.70;;
12163;SDS011;6145;50.192;10.064;2023-08-30T17:44:03;3.40;;;2.90;;
12163;SDS011;6145;50.192;10.064;2023-08-30T17:46:33;3.10;;;2.90;;
12163;SDS011;6145;50.192;10.064;2023-08-30T17:49:02;3.33;;;2.80;;
12163;SDS011;6145;50.192;10.064;2023-08-30T17:51:29;3.70;;;3.20;;
12163;SDS011;6145;50.192;10.064;2023-08-30T17:54:00;3.13;;;2.83;;
12163;SDS011;6145;50.192;10.064;2023-08-30T17:56:27;3.53;;;2.93;;
12163;SDS011;6145;50.192;10.064;2023-08-30T17:58:55;3.00;;;2.80;;
12163;SDS011;6145;50.192;10.064;2023-08-30T18:01:21;3.10;;;2.90;;
12163;SDS011;6145;50.192;10.064;2023-08-30T18:03:52;3.93;;;3.07;;
12163;SDS011;6145;50.192;10.064;2023-08-30T18:06:19;5.17;;;3.63;;
